createdAt,value
2023-02-09T00:05:11.583Z,127.18
2023-02-09T00:07:38.794Z,119.95
2023-02-09T00:10:05.834Z,129.48
2023-02-09T00:12:51.521Z,134.38
2023-02-09T00:15:18.694Z,124.32
2023-02-09T00:17:45.816Z,119.05
2023-02-09T00:27:30.122Z,134.68
2023-02-09T00:29:57.234Z,125.53
2023-02-09T00:54:28.369Z,115.28
2023-02-09T00:56:55.350Z,105.95
2023-02-09T00:59:22.573Z,113.70
2023-02-09T01:04:15.204Z,111.43
2023-02-09T01:06:42.303Z,110.13
2023-02-09T01:11:56.593Z,122.70
2023-02-09T01:14:24.442Z,110.97
2023-02-09T01:16:51.609Z,118.70
2023-02-09T01:19:18.690Z,118.53
2023-02-09T01:21:46.998Z,114.15
2023-02-09T01:24:15.223Z,113.85
2023-02-09T01:29:08.269Z,117.97
2023-02-09T01:31:36.154Z,116.38
2023-02-09T01:34:04.115Z,118.60
2023-02-09T01:38:58.563Z,120.90
2023-02-09T01:41:25.809Z,125.05
2023-02-09T01:43:55.803Z,114.32
2023-02-09T01:46:23.546Z,119.78
2023-02-09T01:48:51.970Z,135.45
2023-02-09T01:51:21.235Z,115.05
2023-02-09T01:53:48.398Z,125.45
2023-02-09T01:56:18.759Z,132.70
2023-02-09T01:58:45.859Z,127.55
2023-02-09T02:04:16.098Z,114.68
2023-02-09T02:06:43.152Z,118.28
2023-02-09T02:14:06.320Z,113.65
2023-02-09T02:19:24.786Z,114.10
2023-02-09T02:24:51.580Z,115.80
2023-02-09T02:27:21.905Z,115.85
2023-02-09T02:30:05.738Z,105.70
2023-02-09T02:32:43.409Z,110.53
2023-02-09T02:35:13.866Z,105.85
2023-02-09T02:37:43.759Z,105.25
2023-02-09T02:57:59.082Z,112.95
2023-02-09T03:00:32.213Z,118.57
2023-02-09T03:05:28.398Z,115.80
2023-02-09T03:07:55.511Z,121.95
2023-02-09T03:10:24.790Z,115.03
2023-02-09T03:12:58.474Z,122.45
2023-02-09T03:15:33.199Z,117.30
2023-02-09T03:20:52.655Z,113.28
2023-02-09T03:23:37.729Z,117.38
2023-02-09T03:26:09.530Z,109.18
2023-02-09T03:28:39.938Z,110.53
2023-02-09T03:31:07.836Z,109.63
2023-02-09T03:38:28.665Z,117.57
2023-02-09T03:43:41.532Z,115.22
2023-02-09T03:46:08.693Z,121.95
2023-02-09T03:48:35.906Z,125.00
2023-02-09T03:53:28.465Z,117.43
2023-02-09T03:55:55.311Z,130.60
2023-02-09T03:58:22.346Z,109.20
2023-02-09T04:00:49.617Z,113.63
2023-02-09T04:03:16.561Z,123.65
2023-02-09T04:05:46.614Z,135.07
2023-02-09T04:08:13.573Z,124.22
2023-02-09T04:10:40.602Z,118.60
2023-02-09T04:15:33.047Z,122.15
2023-02-09T04:20:25.744Z,119.88
2023-02-09T04:22:52.720Z,130.20
2023-02-09T04:25:19.724Z,132.77
2023-02-09T04:35:03.694Z,118.80
2023-02-09T04:37:30.909Z,126.53
2023-02-09T04:39:57.941Z,130.20
2023-02-09T04:42:25.279Z,114.95
2023-02-09T04:44:52.446Z,109.25
2023-02-09T04:47:19.560Z,115.47
2023-02-09T04:49:46.595Z,156.73
2023-02-09T04:52:14.274Z,136.00
2023-02-09T04:54:41.266Z,124.05
2023-02-09T05:04:54.867Z,126.22
2023-02-09T05:07:28.696Z,122.50
2023-02-09T05:10:01.093Z,117.75
2023-02-09T05:25:15.176Z,106.55
2023-02-09T05:27:42.323Z,112.40
2023-02-09T05:30:09.690Z,109.55
2023-02-09T05:35:02.277Z,100.10
2023-02-09T05:37:29.233Z,116.07
2023-02-09T05:39:56.382Z,119.78
2023-02-09T05:42:24.001Z,111.85
2023-02-09T05:44:51.241Z,118.97
2023-02-09T05:47:19.458Z,120.00
2023-02-09T05:49:46.698Z,114.60
2023-02-09T05:52:14.428Z,111.20
2023-02-09T05:54:41.426Z,130.40
2023-02-09T05:57:08.985Z,140.15
2023-02-09T05:59:36.034Z,126.75
2023-02-09T06:06:54.996Z,144.45
2023-02-09T06:09:22.144Z,145.05
2023-02-09T06:11:49.451Z,150.35
2023-02-09T06:14:16.616Z,136.10
2023-02-09T06:19:12.779Z,134.98
2023-02-09T06:21:39.908Z,127.75
2023-02-09T06:24:07.114Z,126.63
2023-02-09T06:33:51.220Z,161.25
2023-02-09T06:36:18.225Z,165.15
2023-02-09T06:38:45.182Z,151.10
2023-02-09T06:41:12.307Z,150.57
2023-02-09T06:43:39.343Z,152.95
2023-02-09T06:46:08.819Z,162.45
2023-02-09T06:48:36.501Z,144.60
2023-02-09T06:51:10.700Z,141.60
2023-02-09T06:56:03.752Z,134.43
2023-02-09T06:58:30.871Z,134.60
2023-02-09T07:08:21.560Z,178.07
2023-02-09T07:18:05.075Z,177.38
2023-02-09T07:20:32.095Z,182.00
2023-02-09T07:25:26.481Z,188.35
2023-02-09T07:27:54.354Z,170.32
2023-02-09T07:30:21.450Z,183.23
2023-02-09T07:33:28.880Z,181.75
2023-02-09T07:40:47.058Z,189.45
2023-02-09T07:48:06.365Z,194.30
2023-02-09T07:50:33.348Z,177.55
2023-02-09T07:53:00.328Z,161.77
2023-02-09T07:55:27.380Z,142.13
2023-02-09T07:57:54.577Z,146.88
2023-02-09T08:02:47.185Z,140.05
2023-02-09T08:07:52.703Z,137.57
2023-02-09T08:10:20.077Z,132.50
2023-02-09T08:15:35.914Z,140.38
2023-02-09T08:18:05.812Z,140.40
2023-02-09T08:20:32.896Z,137.05
2023-02-09T08:22:59.691Z,128.32
2023-02-09T08:25:26.462Z,133.45
2023-02-09T08:28:43.903Z,153.82
2023-02-09T08:38:29.961Z,155.95
2023-02-09T08:40:56.970Z,135.80
2023-02-09T08:43:23.825Z,125.47
2023-02-09T08:48:16.666Z,119.28
2023-02-09T08:50:43.803Z,135.52
2023-02-09T08:53:10.802Z,106.70
2023-02-09T08:55:38.543Z,109.68
2023-02-09T08:58:05.872Z,116.10
2023-02-09T09:02:58.424Z,92.90
2023-02-09T09:05:25.615Z,108.38
2023-02-09T09:07:52.586Z,95.18
2023-02-09T09:10:19.681Z,90.45
2023-02-09T09:12:46.683Z,97.55
2023-02-09T09:22:30.424Z,84.80
2023-02-09T09:24:57.293Z,77.32
2023-02-09T09:27:26.834Z,80.28
2023-02-09T09:29:54.447Z,75.38
2023-02-09T09:32:25.018Z,73.47
2023-02-09T09:34:52.636Z,72.53
2023-02-09T09:42:54.577Z,78.75
2023-02-09T09:45:22.908Z,76.80
2023-02-09T09:55:23.769Z,59.13
2023-02-09T09:57:51.453Z,58.80
2023-02-09T10:11:11.934Z,55.53
2023-02-09T10:13:48.993Z,61.90
2023-02-09T10:26:11.093Z,49.72
2023-02-09T10:28:48.674Z,54.35
2023-02-09T10:34:13.865Z,56.63
2023-02-09T10:44:34.288Z,64.55
2023-02-09T10:47:11.834Z,57.85
2023-02-09T10:49:40.311Z,58.03
2023-02-09T10:52:12.910Z,53.38
2023-02-09T10:54:56.504Z,50.22
2023-02-09T10:57:31.089Z,50.72
2023-02-09T11:02:29.780Z,42.15
2023-02-09T11:04:56.896Z,43.92
2023-02-09T11:12:39.617Z,46.75
2023-02-09T11:15:17.082Z,46.42
2023-02-09T11:20:37.952Z,42.90
2023-02-09T11:33:11.675Z,49.60
2023-02-09T11:35:48.167Z,45.50
2023-02-09T11:38:17.446Z,49.15
2023-02-09T11:43:22.779Z,50.80
2023-02-09T11:51:12.239Z,49.75
2023-02-09T11:53:45.940Z,43.78
2023-02-09T11:56:14.032Z,48.67
2023-02-09T11:58:53.796Z,48.10
2023-02-09T12:01:24.247Z,51.25
2023-02-09T12:03:57.617Z,48.47
2023-02-09T12:06:24.894Z,44.92
2023-02-09T12:08:57.864Z,46.30
2023-02-09T12:11:27.511Z,45.10
2023-02-09T12:13:54.503Z,50.70
2023-02-09T12:16:23.369Z,36.72
2023-02-09T12:21:27.054Z,43.47
2023-02-09T12:31:13.331Z,41.20
2023-02-09T12:34:00.533Z,43.97
2023-02-09T12:36:34.150Z,42.00
2023-02-09T12:39:04.940Z,33.63
2023-02-09T12:49:09.698Z,35.78
2023-02-09T12:51:54.615Z,34.47
2023-02-09T13:02:29.632Z,31.45
2023-02-09T13:05:11.900Z,34.15
2023-02-09T13:15:56.182Z,31.77
2023-02-09T13:18:46.722Z,27.08
2023-02-09T13:31:34.929Z,30.00
2023-02-09T13:34:28.111Z,27.25
2023-02-09T13:37:21.784Z,28.25
2023-02-09T13:39:57.936Z,24.90
2023-02-09T13:44:53.480Z,24.80
2023-02-09T13:47:20.621Z,18.17
2023-02-09T13:50:10.286Z,20.52
2023-02-09T13:52:39.182Z,21.63
2023-02-09T13:55:15.744Z,21.95
2023-02-09T14:05:03.255Z,28.87
2023-02-09T14:07:33.498Z,29.33
2023-02-09T14:12:56.020Z,15.98
2023-02-09T14:21:11.457Z,18.13
2023-02-09T14:23:38.543Z,20.63
2023-02-09T14:26:05.572Z,18.67
2023-02-09T14:30:58.429Z,21.65
2023-02-09T14:33:25.627Z,17.83
2023-02-09T14:38:36.420Z,23.23
2023-02-09T14:43:45.213Z,16.80
2023-02-09T14:46:12.362Z,23.02
2023-02-09T14:53:40.300Z,19.25
2023-02-09T14:56:12.474Z,17.17
2023-02-09T14:58:39.219Z,15.05
2023-02-09T15:03:31.813Z,19.83
2023-02-09T15:06:00.980Z,16.92
2023-02-09T15:08:30.622Z,19.98
2023-02-09T15:11:34.813Z,19.42
2023-02-09T15:18:57.994Z,19.98
2023-02-09T15:21:25.126Z,23.20
2023-02-09T15:23:52.135Z,21.13
2023-02-09T15:26:21.405Z,19.33
2023-02-09T15:28:48.617Z,21.63
2023-02-09T15:31:16.425Z,22.98
2023-02-09T15:38:38.336Z,23.67
2023-02-09T15:41:23.591Z,23.95
2023-02-09T15:44:09.080Z,26.67
2023-02-09T15:46:54.385Z,24.25
2023-02-09T15:49:22.058Z,20.90
2023-02-09T15:51:48.930Z,28.35
2023-02-09T15:59:19.893Z,32.58
2023-02-09T16:01:47.429Z,30.85
2023-02-09T16:04:15.094Z,24.65
2023-02-09T16:06:46.086Z,30.55
2023-02-09T16:11:43.229Z,29.13
2023-02-09T16:14:17.845Z,33.08
2023-02-09T16:16:46.064Z,27.80
2023-02-09T16:19:13.464Z,38.38
2023-02-09T16:21:42.632Z,35.20
2023-02-09T16:38:50.552Z,30.65
2023-02-09T16:44:09.905Z,32.33
2023-02-09T17:16:22.735Z,39.10
2023-02-09T17:23:46.117Z,24.35
2023-02-09T17:26:13.688Z,28.65
2023-02-09T17:31:53.127Z,34.70
2023-02-09T17:34:27.351Z,39.97
2023-02-09T17:44:26.421Z,38.40
2023-02-09T17:46:56.204Z,38.90
2023-02-09T17:54:16.379Z,36.95
2023-02-09T18:01:39.133Z,38.00
2023-02-09T18:04:06.433Z,42.72
2023-02-09T18:06:34.436Z,42.95
2023-02-09T18:09:02.396Z,46.58
2023-02-09T18:11:45.489Z,44.20
2023-02-09T18:19:04.216Z,44.30
2023-02-09T18:21:31.846Z,44.97
2023-02-09T18:23:58.840Z,46.70
2023-02-09T18:26:26.193Z,50.45
2023-02-09T18:31:20.193Z,48.95
2023-02-09T18:33:47.089Z,52.78
2023-02-09T18:36:15.056Z,54.40
2023-02-09T18:38:42.335Z,54.55
2023-02-09T18:41:13.102Z,53.75
2023-02-09T18:43:40.264Z,65.70
2023-02-09T18:46:07.366Z,67.65
2023-02-09T18:48:34.360Z,61.55
2023-02-09T18:51:01.410Z,53.17
2023-02-09T18:53:28.416Z,52.20
2023-02-09T18:55:58.666Z,51.65
2023-02-09T18:58:25.665Z,64.47
2023-02-09T19:00:58.336Z,108.63
2023-02-09T19:03:24.938Z,85.72
2023-02-09T19:05:52.272Z,68.68
2023-02-09T19:08:19.342Z,49.50
2023-02-09T19:10:46.316Z,53.67
2023-02-09T19:15:39.354Z,47.58
2023-02-09T19:18:06.501Z,45.13
2023-02-09T19:23:00.132Z,42.85
2023-02-09T19:25:27.710Z,42.78
2023-02-09T19:30:24.915Z,35.13
2023-02-09T19:32:55.731Z,39.00
2023-02-09T19:35:23.088Z,34.20
2023-02-09T19:50:46.604Z,38.38
2023-02-09T19:53:14.587Z,43.65
2023-02-09T19:55:41.969Z,35.15
2023-02-09T20:00:34.499Z,39.38
2023-02-09T20:03:01.818Z,48.13
2023-02-09T20:05:28.636Z,40.90
2023-02-09T20:20:06.135Z,55.97
2023-02-09T20:22:33.100Z,69.15
2023-02-09T20:25:00.391Z,75.95
2023-02-09T20:27:27.393Z,67.75
2023-02-09T20:30:01.429Z,58.65
2023-02-09T20:42:30.410Z,54.22
2023-02-09T20:45:34.332Z,51.30
2023-02-09T20:50:27.075Z,48.50
2023-02-09T20:52:54.070Z,43.10
2023-02-09T20:55:22.897Z,38.97
2023-02-09T20:57:49.999Z,39.60
2023-02-09T21:00:17.294Z,47.45
2023-02-09T21:02:44.392Z,45.38
2023-02-09T21:05:11.395Z,54.20
2023-02-09T21:07:39.071Z,47.75
2023-02-09T21:10:36.005Z,47.13
2023-02-09T21:13:04.041Z,45.80
2023-02-09T21:15:31.076Z,46.67
2023-02-09T21:20:23.537Z,43.22
2023-02-09T21:22:50.790Z,45.78
2023-02-09T21:37:32.334Z,47.75
2023-02-09T21:42:30.980Z,49.03
2023-02-09T21:44:58.359Z,43.35
2023-02-09T21:47:34.614Z,45.95
2023-02-09T21:52:28.355Z,44.80
2023-02-09T22:04:43.306Z,43.63
2023-02-09T22:07:11.024Z,35.00
2023-02-09T22:09:38.168Z,45.72
2023-02-09T22:12:05.823Z,39.28
2023-02-09T22:14:33.110Z,44.40
2023-02-09T22:17:00.238Z,41.95
2023-02-09T22:19:27.319Z,52.30
2023-02-09T22:21:56.846Z,45.63
2023-02-09T22:24:24.120Z,71.97
2023-02-09T22:26:51.259Z,47.58
2023-02-09T22:29:18.512Z,51.53
2023-02-09T22:39:04.718Z,70.07
2023-02-09T22:41:31.972Z,64.72
2023-02-09T22:44:03.181Z,59.88
2023-02-09T22:51:32.468Z,92.85
2023-02-09T22:56:26.442Z,50.83
2023-02-09T22:58:54.086Z,43.65
2023-02-09T23:01:21.156Z,48.75
2023-02-09T23:03:48.270Z,44.88
2023-02-09T23:06:16.859Z,43.80
2023-02-09T23:11:14.510Z,65.40
2023-02-09T23:13:41.998Z,58.90
2023-02-09T23:23:27.620Z,52.30
2023-02-09T23:25:54.618Z,52.60
2023-02-09T23:28:33.924Z,61.22
2023-02-09T23:31:08.351Z,77.25
2023-02-09T23:33:36.276Z,65.70
2023-02-09T23:36:09.644Z,74.50
2023-02-09T23:38:36.748Z,67.47
2023-02-09T23:41:07.811Z,64.43
2023-02-09T23:43:35.317Z,62.15
2023-02-09T23:48:32.095Z,61.53
2023-02-09T23:51:00.309Z,62.47
2023-02-09T23:55:53.842Z,55.15
2023-02-09T23:58:20.928Z,49.53
